Time,TemperatureF,DewpointF,PressureIn,WindDirection,WindDirectionDegrees,WindSpeedMPH,WindSpeedGustMPH,Humidity,HourlyPrecipIn,Conditions,Clouds,dailyrainin,SoftwareType,DateUTC
2013-02-22 00:00:00,35.8,27.7,30.26,SSW,196,2.0,2.0,72,0.05, -SN,,-99.99,VWS V12.06,2013-02-22 05:00:00,
2013-02-22 00:02:00,35.0,29.2,30.23,ENE,63,1.0,5.0,79,0.11, -SN,,-99.99,VWS V12.06,2013-02-22 05:02:00,
2013-02-22 00:30:00,34.5,28.4,30.28,SE,124,0.0,0.0,78,0.07, -SN,,-99.99,VWS V12.06,2013-02-22 05:30:00,
2013-02-22 01:00:00,31.7,28.6,30.26,ENE,65,4.0,4.0,88,0.08, -SN,,-99.99,VWS V12.06,2013-02-22 06:00:00,
2013-02-22 01:30:00,31.6,29.3,30.28,NE,35,0.0,0.0,91,0.09, -SN,,-99.99,VWS V12.06,2013-02-22 06:30:00,
2013-02-22 02:00:00,31.4,29.4,30.27,ESE,113,1.0,1.0,92,0.10,,OVC050,-99.99,VWS V12.06,2013-02-22 07:00:00,
2013-02-22 02:30:00,30.9,29.1,30.26,East,97,0.0,2.0,93,0.09,,OVC050,-99.99,VWS V12.06,2013-02-22 07:30:00,
2013-02-22 03:00:00,30.7,29.2,30.25,SE,124,1.0,3.0,94,0.07, -SN,,-99.99,VWS V12.06,2013-02-22 08:00:00,
2013-02-22 03:30:00,30.5,29.0,30.24,SSW,201,3.0,3.0,94,0.05, -SN,,-99.99,VWS V12.06,2013-02-22 08:30:00,
2013-02-22 04:00:00,30.2,28.9,30.21,SE,139,0.0,3.0,95,0.03,,OVC002,-99.99,VWS V12.06,2013-02-22 09:00:00,
2013-02-22 04:30:00,30.0,28.7,30.20,East,80,1.0,2.0,95,0.01,,OVC002,-99.99,VWS V12.06,2013-02-22 09:30:00,
2013-02-22 05:00:00,30.0,28.7,30.22,ENE,76,0.0,0.0,95,0.00, -SN,,-99.99,VWS V12.06,2013-02-22 10:00:00,
2013-02-22 05:30:00,30.4,29.1,30.21,SSE,165,0.0,2.0,95,0.00, -SN,,-99.99,VWS V12.06,2013-02-22 10:30:00,
2013-02-22 06:00:00,30.3,29.0,30.22,SSW,207,4.0,4.0,95,0.00, FZFG,,-99.99,VWS V12.06,2013-02-22 11:00:00,
2013-02-22 06:30:00,30.5,29.2,30.24,SSW,213,3.0,3.0,95,0.01, FZFG,,-99.99,VWS V12.06,2013-02-22 11:30:00,
2013-02-22 07:00:00,30.4,29.4,30.24,SSW,202,4.0,4.0,96,0.02,,OVC002,-99.99,VWS V12.06,2013-02-22 12:00:00,
2013-02-22 07:30:00,30.3,29.3,30.25,SSW,211,4.0,4.0,96,0.01,,OVC002,-99.99,VWS V12.06,2013-02-22 12:30:00,
2013-02-22 08:00:00,30.3,29.3,30.25,SW,221,4.0,4.0,96,0.00,,OVC002,-99.99,VWS V12.06,2013-02-22 13:00:00,
2013-02-22 08:30:00,30.5,29.5,30.25,SW,216,2.0,4.0,96,0.00,,OVC002,-99.99,VWS V12.06,2013-02-22 13:30:00,
2013-02-22 09:00:00,30.5,29.5,30.25,SSW,197,2.0,2.0,96,0.00, BR,,-99.99,VWS V12.06,2013-02-22 14:00:00,
2013-02-22 09:30:00,31.0,30.0,30.24,SW,215,1.0,2.0,96,0.00, BR,,-99.99,VWS V12.06,2013-02-22 14:30:00,
2013-02-22 10:00:00,31.1,30.1,30.25,SSW,213,3.0,3.0,96,0.00, FZFG,,-99.99,VWS V12.06,2013-02-22 15:00:00,
2013-02-22 10:30:00,31.2,30.2,30.24,SSW,213,2.0,6.0,96,0.00, FZFG,,-99.99,VWS V12.06,2013-02-22 15:30:00,
2013-02-22 11:00:00,31.3,30.3,30.25,SW,229,4.0,5.0,96,0.00, FZFG,,-99.99,VWS V12.06,2013-02-22 16:00:00,
2013-02-22 11:32:00,34.5,28.0,30.18,SSE,160,2.0,3.0,77,0.00, FZFG,,-99.99,VWS V12.06,2013-02-22 16:32:00,
2013-02-22 12:00:00,32.1,31.4,30.24,SSW,205,4.0,4.0,97,0.00, BR,,-99.99,VWS V12.06,2013-02-22 17:00:00,
2013-02-22 12:30:00,32.1,31.4,30.23,SSW,205,2.0,3.0,97,0.00, BR,,-99.99,VWS V12.06,2013-02-22 17:30:00,
2013-02-22 13:00:00,32.1,31.4,30.22,SSW,205,5.0,5.0,97,0.00, BR,,-99.99,VWS V12.06,2013-02-22 18:00:00,
2013-02-22 13:30:00,32.3,31.3,30.21,SSW,205,4.0,6.0,96,0.00, BR,,-99.99,VWS V12.06,2013-02-22 18:30:00,
2013-02-22 14:00:00,32.3,31.5,30.20,SSW,205,5.0,6.0,97,0.00,,OVC011,-99.99,VWS V12.06,2013-02-22 19:00:00,
2013-02-22 14:30:00,32.6,31.8,30.18,SSW,205,2.0,4.0,97,0.00,,OVC011,-99.99,VWS V12.06,2013-02-22 19:30:00,
2013-02-22 15:00:00,32.6,31.8,30.19,SSW,205,1.0,2.0,97,0.00, BR,,-99.99,VWS V12.06,2013-02-22 20:00:00,
2013-02-22 15:30:00,32.4,31.6,30.19,SSW,205,1.0,2.0,97,0.00, BR,,-99.99,VWS V12.06,2013-02-22 20:30:00,
2013-02-22 16:00:00,32.5,31.7,30.19,SSW,205,1.0,1.0,97,0.00, FG,,-99.99,VWS V12.06,2013-02-22 21:00:00,
2013-02-22 16:30:00,32.4,31.4,30.19,SSW,205,0.0,0.0,96,0.00, FG,,-99.99,VWS V12.06,2013-02-22 21:30:00,
2013-02-22 17:00:00,32.4,31.6,30.19,SSW,205,0.0,0.0,97,0.00, FG,,-99.99,VWS V12.06,2013-02-22 22:00:00,
2013-02-22 17:30:00,32.0,31.2,30.19,SSW,205,0.0,2.0,97,0.00, FG,,-99.99,VWS V12.06,2013-02-22 22:30:00,
2013-02-22 18:00:00,32.0,31.2,30.18,SSW,205,1.0,1.0,97,0.00, FG,,-99.99,VWS V12.06,2013-02-22 23:00:00,
2013-02-22 18:30:00,32.1,31.1,30.19,SSW,205,0.0,0.0,96,0.00, FG,,-99.99,VWS V12.06,2013-02-22 23:30:00,
2013-02-22 19:00:00,31.3,30.3,30.19,SSW,205,0.0,0.0,96,0.00, FG,,-99.99,VWS V12.06,2013-02-23 00:00:00,
2013-02-22 19:30:00,31.2,30.2,30.19,SSW,205,0.0,0.0,96,0.00, FG,,-99.99,VWS V12.06,2013-02-23 00:30:00,
2013-02-22 20:00:00,31.3,30.5,30.20,SSW,205,0.0,0.0,97,0.00, FG,,-99.99,VWS V12.06,2013-02-23 01:00:00,
2013-02-22 20:30:00,31.2,30.2,30.21,SSW,205,0.0,0.0,96,0.00, FG,,-99.99,VWS V12.06,2013-02-23 01:30:00,
2013-02-22 21:00:00,31.1,30.1,30.19,SSW,205,0.0,0.0,96,0.00, FG,,-99.99,VWS V12.06,2013-02-23 02:00:00,
2013-02-22 21:30:00,30.4,29.6,30.19,SSW,205,0.0,0.0,97,0.00, FG,,-99.99,VWS V12.06,2013-02-23 02:30:00,
2013-02-22 22:00:00,30.7,30.0,30.21,SSW,205,0.0,0.0,97,0.00, FZFG,,-99.99,VWS V12.06,2013-02-23 03:00:00,
2013-02-22 22:30:00,30.3,29.5,30.20,SSW,205,0.0,0.0,97,0.00, FZFG,,-99.99,VWS V12.06,2013-02-23 03:30:00,
2013-02-22 23:00:00,30.6,29.9,30.18,SSW,205,0.0,0.0,97,0.00, FZFG,,-99.99,VWS V12.06,2013-02-23 04:00:00,
2013-02-22 23:30:00,30.4,29.6,30.17,SSW,205,0.0,0.0,97,0.00, FZFG,,-99.99,VWS V12.06,2013-02-23 04:30:00,